Time;durP1;ratioP1;P1;durP2;ratioP2;P2;SDS_P1;SDS_P2;PMS_P1;PMS_P2;Temp;Humidity;BMP_temperature;BMP_pressure;BME280_temperature;BME280_humidity;BME280_pressure;Samples;Min_cycle;Max_cycle;Signal;HPM_P1;HPM_P2
2020/12/25 00:02:12;;;;;;;6.90;4.20;;;7.90;99.90;;;7.94;72.40;102074.09;5074696;28;20063;-66
2020/12/25 00:04:39;;;;;;;3.95;3.65;;;7.90;99.90;;;7.99;72.95;102080.34;5074736;28;20044;-70
2020/12/25 00:07:07;;;;;;;7.05;3.70;;;8.00;99.90;;;7.99;73.02;102075.09;5074944;28;20045;-70
2020/12/25 00:09:35;;;;;;;3.53;3.20;;;7.90;99.90;;;7.99;72.95;102064.56;5074741;28;20040;-70
2020/12/25 00:12:03;;;;;;;4.13;3.38;;;7.90;99.90;;;7.94;72.79;102050.38;5074798;28;20072;-70
2020/12/25 00:14:30;;;;;;;7.75;4.03;;;7.90;99.90;;;8.04;73.20;102065.59;5074600;28;20555;-70
2020/12/25 00:16:59;;;;;;;4.22;3.88;;;7.90;99.90;;;7.94;73.23;102053.03;5074233;28;20118;-70
2020/12/25 00:19:27;;;;;;;4.07;3.78;;;7.90;99.90;;;8.11;72.74;102087.69;5074202;28;20040;-70
2020/12/25 00:21:55;;;;;;;4.03;3.42;;;8.00;99.90;;;8.11;72.81;102085.94;5074118;28;20076;-70
2020/12/25 00:24:22;;;;;;;3.97;3.58;;;8.00;99.90;;;8.21;72.71;102087.97;5074138;28;20045;-70
2020/12/25 00:26:50;;;;;;;3.95;3.50;;;8.10;99.90;;;8.05;72.48;102087.56;5074095;28;20078;-70
2020/12/25 00:29:18;;;;;;;4.78;4.38;;;8.00;99.90;;;8.17;72.96;102085.19;5074047;28;20036;-70
2020/12/25 00:31:46;;;;;;;4.38;4.13;;;8.00;99.90;;;8.16;72.60;102071.16;5073936;28;20045;-70
2020/12/25 00:34:14;;;;;;;4.22;3.83;;;8.10;99.90;;;8.28;72.32;102101.34;5074232;28;20040;-70
2020/12/25 00:36:44;;;;;;;5.18;4.07;;;8.10;99.90;;;8.24;72.19;102100.34;5072553;28;20508;-70
2020/12/25 00:39:14;;;;;;;4.53;3.67;;;8.10;99.90;;;8.09;72.92;102092.91;5074351;28;20134;-70
2020/12/25 00:41:44;;;;;;;4.47;3.85;;;8.10;99.90;;;8.21;72.44;102116.06;5074083;28;20044;-70
2020/12/25 00:44:13;;;;;;;3.85;3.50;;;8.10;99.90;;;8.27;72.26;102116.25;5073753;28;20052;-70
2020/12/25 00:46:41;;;;;;;4.95;4.55;;;8.10;99.90;;;8.19;72.08;102121.28;5073969;28;20114;-70
2020/12/25 00:49:10;;;;;;;4.25;3.95;;;8.00;99.90;;;8.14;72.01;102115.03;5072386;28;20045;-70
2020/12/25 00:51:38;;;;;;;5.00;4.63;;;8.00;99.90;;;7.91;72.51;102116.19;5072537;28;20072;-70
2020/12/25 00:54:06;;;;;;;4.45;4.15;;;7.80;99.90;;;7.73;73.24;102102.50;5073852;28;20052;-70
2020/12/25 00:56:46;;;;;;;5.35;4.40;;;7.60;99.90;;;7.66;73.29;102094.41;5072812;28;20398;-70
2020/12/25 00:59:19;;;;;;;5.03;4.40;;;7.60;99.90;;;7.99;73.09;102132.19;5072500;28;20044;-70
2020/12/25 01:01:51;;;;;;;5.43;3.92;;;7.70;99.90;;;7.86;73.09;102120.41;5073588;28;20068;-70
2020/12/25 01:04:19;;;;;;;7.10;4.82;;;7.80;99.90;;;7.99;73.03;102137.47;5073718;28;20044;-70
2020/12/25 01:06:46;;;;;;;8.52;4.45;;;7.80;99.90;;;7.79;72.93;102136.91;5073275;28;20085;-70
2020/12/25 01:09:15;;;;;;;6.43;4.40;;;7.70;99.90;;;7.34;73.32;102038.25;5072976;28;20118;-70
2020/12/25 01:11:42;;;;;;;5.07;4.43;;;7.80;99.90;;;7.88;73.32;102150.31;5073504;28;20052;-70
2020/12/25 01:14:10;;;;;;;5.88;4.70;;;7.70;99.90;;;7.92;73.48;102157.47;5073383;28;20041;-70
2020/12/25 01:16:38;;;;;;;8.30;4.85;;;7.80;99.90;;;7.96;73.10;102163.69;5073041;28;20669;-70
2020/12/25 01:19:05;;;;;;;7.15;4.22;;;7.80;99.90;;;7.69;73.49;102113.81;5073269;28;20036;-70
2020/12/25 01:21:33;;;;;;;5.80;4.28;;;7.80;99.90;;;7.92;74.19;102164.47;5072891;28;20045;-70
2020/12/25 01:24:00;;;;;;;11.80;4.78;;;7.80;99.90;;;7.87;74.43;102166.09;5073163;28;20402;-70
2020/12/25 01:26:28;;;;;;;9.48;4.22;;;7.80;99.90;;;7.90;74.41;102164.44;5073005;28;20490;-70
2020/12/25 01:29:03;;;;;;;7.40;3.95;;;7.80;99.90;;;7.84;74.49;102173.94;5071999;28;20482;-70
2020/12/25 01:31:31;;;;;;;11.63;5.47;;;7.80;99.90;;;7.83;74.93;102173.03;5072875;28;20063;-70
2020/12/25 01:33:59;;;;;;;8.05;4.68;;;7.80;99.90;;;7.74;75.18;102185.06;5071754;28;20640;-70
2020/12/25 01:36:27;;;;;;;16.57;4.87;;;7.70;99.90;;;7.81;75.04;102198.44;5072912;28;20044;-70
2020/12/25 01:38:54;;;;;;;14.85;4.72;;;7.80;99.90;;;7.88;75.11;102192.47;5072976;28;20072;-70
2020/12/25 01:41:22;;;;;;;9.50;4.82;;;7.80;99.90;;;7.87;74.95;102195.97;5072605;28;20044;-70
2020/12/25 01:43:50;;;;;;;7.95;4.22;;;7.80;99.90;;;8.00;74.59;102192.81;5072813;28;20116;-70
2020/12/25 01:46:17;;;;;;;7.93;4.72;;;7.90;99.90;;;8.07;74.49;102184.22;5073047;28;20048;-70
2020/12/25 01:48:45;;;;;;;11.15;5.00;;;8.00;99.90;;;8.10;74.28;102180.78;5072765;28;20040;-70
2020/12/25 01:51:15;;;;;;;11.77;4.72;;;8.00;99.90;;;8.11;73.91;102194.00;5072975;28;20048;-70
2020/12/25 01:53:43;;;;;;;12.50;5.23;;;8.10;99.90;;;8.04;73.77;102199.97;5071402;28;20110;-70
2020/12/25 01:56:12;;;;;;;12.18;5.45;;;8.10;99.90;;;7.91;73.99;102189.94;5072655;28;20090;-70
2020/12/25 01:58:41;;;;;;;7.15;4.43;;;7.90;99.90;;;7.94;74.37;102195.28;5072367;28;20521;-70
2020/12/25 02:01:10;;;;;;;9.32;4.32;;;7.90;99.90;;;7.60;75.45;102197.81;5072608;28;20136;-70
2020/12/25 02:03:38;;;;;;;9.65;4.43;;;7.60;99.90;;;7.24;75.10;102108.16;5072715;28;20088;-70
2020/12/25 02:06:05;;;;;;;12.00;4.28;;;7.70;99.90;;;7.79;75.43;102201.88;5072339;28;20049;-70
2020/12/25 02:08:33;;;;;;;9.30;4.15;;;7.70;99.90;;;7.38;75.80;102176.97;5072262;28;20068;-70
2020/12/25 02:11:01;;;;;;;11.70;4.10;;;7.50;99.90;;;7.61;76.10;102199.59;5072753;28;20045;-70
2020/12/25 02:13:30;;;;;;;8.00;4.53;;;7.50;99.90;;;7.74;76.16;102199.09;5072385;28;20041;-70
2020/12/25 02:15:58;;;;;;;8.10;4.23;;;7.60;99.90;;;7.60;75.71;102208.34;5072496;28;20448;-70
2020/12/25 02:18:33;;;;;;;7.73;4.17;;;7.50;99.90;;;7.50;76.48;102211.56;5072268;28;20071;-70
2020/12/25 02:21:03;;;;;;;10.70;4.43;;;7.40;99.90;;;7.44;76.47;102206.13;5071510;28;20114;-70
2020/12/25 02:23:31;;;;;;;7.32;4.03;;;7.40;99.90;;;7.45;76.63;102218.44;5072406;28;20468;-70
2020/12/25 02:25:58;;;;;;;11.80;3.85;;;7.30;99.90;;;7.29;77.05;102211.84;5072314;28;20044;-70
2020/12/25 02:28:26;;;;;;;6.97;4.50;;;7.20;99.90;;;7.27;77.37;102221.41;5072142;28;20051;-70
2020/12/25 02:30:53;;;;;;;9.30;3.83;;;7.10;99.90;;;7.31;76.87;102219.75;5070958;28;20044;-70
2020/12/25 02:33:20;;;;;;;8.53;4.40;;;7.10;99.90;;;7.29;77.09;102218.81;5072517;28;20090;-70
2020/12/25 02:35:48;;;;;;;9.80;4.20;;;7.10;99.90;;;7.20;77.15;102226.44;5071742;28;20129;-70
2020/12/25 02:38:16;;;;;;;10.00;4.57;;;7.10;99.90;;;7.18;77.41;102229.00;5071998;28;20090;-70
2020/12/25 02:40:43;;;;;;;11.00;5.33;;;7.00;99.90;;;7.20;77.52;102242.22;5071970;28;20037;-70
2020/12/25 02:43:11;;;;;;;7.50;4.03;;;7.00;99.90;;;6.96;78.51;102244.06;5071798;28;20037;-70
2020/12/25 02:45:38;;;;;;;7.57;4.40;;;6.90;99.90;;;7.09;78.20;102240.97;5072141;28;20084;-70
2020/12/25 02:48:05;;;;;;;8.60;4.80;;;6.90;99.90;;;7.19;78.01;102243.06;5072059;28;20383;-70
2020/12/25 02:50:34;;;;;;;9.00;4.28;;;7.00;99.90;;;7.16;77.86;102250.88;5072084;28;20170;-70
2020/12/25 02:53:01;;;;;;;8.60;4.83;;;7.10;99.90;;;7.17;78.39;102253.53;5071782;28;20067;-70
2020/12/25 02:55:29;;;;;;;14.40;4.63;;;7.00;99.90;;;7.21;78.07;102305.44;5071679;28;20071;-70
2020/12/25 02:57:57;;;;;;;8.73;4.50;;;7.10;99.90;;;7.41;77.90;102292.91;5072019;28;20040;-70
2020/12/25 03:00:24;;;;;;;7.40;4.77;;;7.20;99.90;;;7.49;78.05;102290.50;5071690;28;20113;-71
2020/12/25 03:02:51;;;;;;;7.32;4.07;;;7.30;99.90;;;7.37;77.44;102269.97;5071909;28;20436;-70
2020/12/25 03:05:32;;;;;;;7.87;3.67;;;7.30;99.90;;;7.42;77.18;102256.91;5071979;28;20097;-70
2020/12/25 03:08:00;;;;;;;7.13;3.80;;;7.30;99.90;;;7.26;77.17;102250.28;5071849;28;20131;-70
2020/12/25 03:10:27;;;;;;;10.93;4.30;;;7.20;99.90;;;7.12;78.06;102241.97;5072099;28;20043;-70
2020/12/25 03:12:56;;;;;;;8.23;4.33;;;7.10;99.90;;;7.26;77.72;102237.13;5071553;28;20052;-70
2020/12/25 03:15:24;;;;;;;7.27;4.53;;;7.10;99.90;;;7.29;77.56;102242.50;5070463;28;20496;-70
2020/12/25 03:17:51;;;;;;;10.97;4.80;;;7.10;99.90;;;7.12;77.94;102241.97;5071505;28;20513;-70
2020/12/25 03:20:19;;;;;;;10.27;3.87;;;7.00;99.90;;;7.23;77.69;102240.59;5071785;28;20044;-70
2020/12/25 03:22:46;;;;;;;7.67;3.90;;;7.10;99.90;;;7.31;77.84;102238.19;5071400;28;20119;-70
2020/12/25 03:25:14;;;;;;;7.80;4.07;;;7.10;99.90;;;7.46;77.39;102243.00;5071811;28;20507;-70
2020/12/25 03:27:41;;;;;;;7.40;3.83;;;7.20;99.90;;;7.31;77.02;102225.03;5071455;28;20079;-70
2020/12/25 03:30:09;;;;;;;6.82;3.97;;;7.30;99.90;;;7.56;76.76;102253.88;5071961;28;20367;-70
2020/12/25 03:32:36;;;;;;;6.70;3.67;;;7.40;99.90;;;7.62;76.66;102258.44;5072959;28;20157;-70
2020/12/25 03:35:05;;;;;;;6.80;3.80;;;7.40;99.90;;;7.66;76.71;102263.84;5075349;28;20056;-70
2020/12/25 03:37:32;;;;;;;6.63;3.97;;;7.50;99.90;;;5.50;76.79;101909.13;5074055;28;20477;-70
2020/12/25 03:40:01;;;;;;;8.90;4.63;;;7.60;99.90;;;7.67;76.57;102270.88;5075485;28;20436;-70
2020/12/25 03:42:28;;;;;;;5.22;4.13;;;7.60;99.90;;;7.69;76.16;102260.38;5075208;28;20040;-69
2020/12/25 03:44:56;;;;;;;8.73;4.30;;;7.60;99.90;;;7.79;75.91;102279.16;5108059;28;20060;-70
2020/12/25 03:47:25;;;;;;;7.87;4.10;;;7.70;99.90;;;7.63;76.39;102278.63;5075113;28;20133;-70
2020/12/25 03:49:53;;;;;;;10.55;4.68;;;7.50;99.90;;;7.74;76.47;102277.22;5074795;28;20049;-70
2020/12/25 03:52:21;;;;;;;10.50;4.25;;;7.60;99.90;;;7.79;76.30;102275.63;5075310;28;20105;-70
2020/12/25 03:54:49;;;;;;;7.05;4.30;;;7.70;99.90;;;7.79;76.60;102265.06;5074938;28;20111;-70
2020/12/25 03:57:16;;;;;;;8.02;3.67;;;7.70;99.90;;;7.91;76.33;102266.34;5074940;28;20041;-70
2020/12/25 03:59:44;;;;;;;9.15;4.30;;;7.80;99.90;;;7.95;76.33;102264.69;5074641;28;20509;-70
2020/12/25 04:02:11;;;;;;;11.02;4.28;;;7.80;99.90;;;7.89;76.30;102265.41;5074968;28;20071;-70
2020/12/25 04:04:39;;;;;;;5.25;4.03;;;7.70;99.90;;;7.97;75.81;102265.63;5074844;28;20036;-70
2020/12/25 04:07:07;;;;;;;8.57;3.88;;;7.80;99.90;;;8.07;75.29;102286.13;5074493;28;20075;-70
2020/12/25 04:09:34;;;;;;;8.50;4.40;;;7.90;99.90;;;7.99;75.33;102283.22;5074474;28;20098;-69
2020/12/25 04:12:01;;;;;;;6.20;3.50;;;7.80;99.90;;;7.97;75.51;102282.31;5074262;28;20036;-69
2020/12/25 04:14:29;;;;;;;7.40;3.60;;;7.80;99.90;;;8.02;75.71;102282.44;5074335;28;20048;-70
2020/12/25 04:16:56;;;;;;;5.90;3.67;;;7.80;99.90;;;7.94;75.31;102283.94;5074609;28;20135;-69
2020/12/25 04:19:23;;;;;;;7.75;4.15;;;7.80;99.90;;;7.61;76.22;102296.13;5074494;28;20449;-69
2020/12/25 04:21:51;;;;;;;6.28;3.20;;;7.50;99.90;;;7.36;77.61;102294.47;5074169;28;20397;-70
2020/12/25 04:24:19;;;;;;;6.57;3.80;;;7.20;99.90;;;7.28;78.15;102294.25;5074384;28;20052;-69
2020/12/25 04:26:47;;;;;;;9.97;4.30;;;7.10;99.90;;;7.36;78.25;102298.84;5074101;28;20035;-69
2020/12/25 04:29:14;;;;;;;7.27;3.93;;;7.10;99.90;;;7.48;78.17;102293.97;5074128;28;20121;-70
2020/12/25 04:31:42;;;;;;;14.27;4.65;;;7.20;99.90;;;7.41;78.08;102282.38;5074266;28;20052;-70
2020/12/25 04:34:09;;;;;;;16.43;4.70;;;7.30;99.90;;;7.57;77.46;102295.13;5074152;28;20490;-70
2020/12/25 04:36:37;;;;;;;12.60;4.53;;;7.40;99.90;;;7.57;76.34;102300.41;5074211;28;20092;-69
2020/12/25 04:39:07;;;;;;;12.43;4.77;;;7.50;99.90;;;7.05;75.61;102208.44;5073857;28;20056;-70
2020/12/25 04:41:35;;;;;;;11.60;4.88;;;7.40;99.90;;;7.64;75.37;102312.94;5073779;28;20482;-70
2020/12/25 04:44:06;;;;;;;13.13;4.82;;;7.50;99.90;;;7.70;74.90;102304.31;5072862;28;20403;-69
2020/12/25 04:46:34;;;;;;;12.88;4.95;;;7.60;99.90;;;7.74;74.80;102296.53;5073838;28;20033;-69
2020/12/25 04:49:01;;;;;;;10.18;4.95;;;7.70;99.90;;;7.73;74.53;102294.75;5073934;28;20044;-70
2020/12/25 04:51:29;;;;;;;10.53;4.77;;;7.60;99.90;;;7.77;74.49;102298.38;5073605;28;20041;-70
2020/12/25 04:53:57;;;;;;;15.43;4.70;;;7.70;99.90;;;7.78;74.62;102285.25;5073805;28;20045;-70
2020/12/25 04:56:25;;;;;;;13.88;4.55;;;7.70;99.90;;;7.75;74.29;102274.63;5073485;28;20048;-70
2020/12/25 04:58:54;;;;;;;13.82;4.60;;;7.80;99.90;;;7.87;73.89;102301.34;5073897;28;20131;-70
2020/12/25 05:01:21;;;;;;;19.88;5.50;;;7.70;99.90;;;7.90;73.77;102308.41;5073826;28;20068;-70
2020/12/25 05:03:48;;;;;;;12.98;4.85;;;7.70;99.90;;;7.92;73.47;102312.91;5073627;28;20158;-69
2020/12/25 05:06:18;;;;;;;15.98;4.95;;;7.80;99.90;;;7.75;73.50;102318.50;5073568;28;20048;-70
2020/12/25 05:08:47;;;;;;;10.37;4.87;;;7.60;99.90;;;7.83;73.97;102330.16;5073322;28;20448;-69
2020/12/25 05:11:16;;;;;;;16.60;4.97;;;7.60;99.90;;;7.83;73.56;102338.97;5073453;28;20040;-70
2020/12/25 05:13:46;;;;;;;20.73;4.78;;;7.60;99.90;;;7.88;73.64;102332.09;5073428;28;20131;-70
2020/12/25 05:16:16;;;;;;;11.73;5.43;;;7.70;99.90;;;8.05;72.70;102340.50;5073505;28;20093;-70
2020/12/25 05:18:46;;;;;;;12.18;5.55;;;7.90;99.90;;;7.69;72.88;102290.25;5073390;28;20051;-70
2020/12/25 05:21:16;;;;;;;11.50;4.93;;;7.80;99.90;;;7.96;72.97;102334.94;5073363;28;20094;-70
2020/12/25 05:23:45;;;;;;;17.53;5.30;;;7.90;99.90;;;8.05;72.57;102345.78;5072919;28;20040;-70
2020/12/25 05:26:14;;;;;;;18.73;5.20;;;7.90;99.90;;;7.81;72.67;102342.41;5073176;28;20319;-70
2020/12/25 05:28:45;;;;;;;18.10;4.57;;;7.80;99.90;;;7.48;73.16;102328.19;5071536;28;20102;-70
2020/12/25 05:31:14;;;;;;;20.57;5.50;;;7.70;99.90;;;7.55;73.39;102343.34;5073219;28;20068;-70
2020/12/25 05:33:42;;;;;;;18.73;5.43;;;7.60;99.90;;;7.59;74.16;102346.09;5072791;28;20040;-70
2020/12/25 05:36:11;;;;;;;17.23;5.73;;;7.50;99.90;;;7.70;74.02;102355.25;5072416;28;20497;-70
2020/12/25 05:38:40;;;;;;;16.60;5.43;;;7.60;99.90;;;7.80;74.06;102354.66;5072729;28;20044;-70
2020/12/25 05:41:08;;;;;;;20.10;5.70;;;7.70;99.90;;;7.67;74.12;102365.69;5073072;28;20036;-70
2020/12/25 05:43:36;;;;;;;14.83;5.37;;;7.70;99.90;;;7.69;75.29;102370.97;5071466;28;20485;-70
2020/12/25 05:46:04;;;;;;;14.98;5.20;;;7.60;99.90;;;7.69;75.16;102369.25;5072579;28;20115;-70
2020/12/25 05:48:33;;;;;;;13.47;4.87;;;7.70;99.90;;;7.58;75.55;102370.66;5072820;28;20127;-70
2020/12/25 05:51:08;;;;;;;11.43;4.68;;;7.60;99.90;;;7.63;75.41;102373.41;5072471;28;20571;-70
2020/12/25 05:53:36;;;;;;;11.57;5.03;;;7.60;99.90;;;7.71;75.14;102367.56;5072433;28;20048;-70
2020/12/25 05:56:04;;;;;;;13.00;5.00;;;7.60;99.90;;;7.69;74.83;102364.00;5072322;28;20123;-70
2020/12/25 05:58:33;;;;;;;12.60;4.47;;;7.60;99.90;;;7.76;75.00;102365.94;5072651;28;20037;-70
2020/12/25 06:01:01;;;;;;;12.98;4.70;;;7.70;99.90;;;7.80;74.98;102365.19;5072330;28;20067;-70
2020/12/25 06:03:31;;;;;;;10.35;4.25;;;7.70;99.90;;;7.80;74.43;102365.19;5072163;28;20086;-70
2020/12/25 06:06:02;;;;;;;11.73;5.10;;;7.70;99.90;;;7.88;74.02;102361.06;5072636;28;20037;-70
2020/12/25 06:08:36;;;;;;;12.73;4.43;;;7.80;99.90;;;7.90;73.91;102372.53;5072256;28;20036;-70
2020/12/25 06:11:05;;;;;;;16.40;5.40;;;7.80;99.90;;;7.93;73.50;102374.38;5072565;28;20048;-70
2020/12/25 06:13:41;;;;;;;12.17;5.47;;;7.80;99.90;;;7.93;73.34;102372.66;5072447;28;20133;-70
2020/12/25 06:16:14;;;;;;;13.73;5.25;;;7.80;99.90;;;7.82;72.88;102366.16;5072480;28;20037;-70
2020/12/25 06:18:55;;;;;;;9.52;4.28;;;7.70;99.90;;;7.91;72.54;102374.34;5072411;28;20093;-70
2020/12/25 06:21:30;;;;;;;10.57;4.43;;;7.70;99.90;;;7.99;72.41;102383.34;5072448;28;20044;-70
2020/12/25 06:24:00;;;;;;;8.02;3.80;;;7.80;99.90;;;7.81;71.85;102374.91;5072289;28;20429;-70
2020/12/25 06:26:30;;;;;;;10.02;4.28;;;7.80;99.90;;;7.90;71.67;102376.91;5072013;28;20102;-70
2020/12/25 06:29:03;;;;;;;12.27;4.85;;;7.70;99.90;;;7.92;71.68;102381.38;5072035;28;20056;-70
2020/12/25 06:31:41;;;;;;;10.20;4.13;;;7.70;99.90;;;7.61;71.22;102336.53;5072015;28;20045;-70
2020/12/25 06:34:11;;;;;;;11.68;4.72;;;7.70;99.90;;;7.82;71.05;102381.94;5072226;28;20048;-70
2020/12/25 06:36:44;;;;;;;9.70;4.72;;;7.70;99.90;;;7.75;71.32;102397.50;5071590;28;20163;-70
2020/12/25 06:39:14;;;;;;;7.32;4.28;;;7.60;99.90;;;7.78;71.79;102398.50;5072258;28;20044;-70
2020/12/25 06:41:41;;;;;;;10.43;4.27;;;7.60;99.90;;;7.72;71.70;102406.25;5071807;28;20075;-70
2020/12/25 06:44:10;;;;;;;8.52;4.57;;;7.50;99.90;;;7.77;71.54;102422.16;5071855;28;20056;-70
2020/12/25 06:46:37;;;;;;;8.98;4.50;;;7.60;99.90;;;7.62;71.65;102414.69;5072112;28;20060;-70
2020/12/25 06:49:06;;;;;;;11.73;4.82;;;7.60;99.90;;;7.85;72.43;102420.66;5071845;28;20040;-70
2020/12/25 06:51:44;;;;;;;11.77;4.47;;;7.70;99.90;;;7.85;72.66;102423.31;5071835;28;20080;-70
2020/12/25 06:54:18;;;;;;;11.65;4.25;;;7.70;99.90;;;7.89;72.34;102417.28;5072061;28;20379;-70
2020/12/25 06:56:47;;;;;;;11.27;4.57;;;7.70;99.90;;;7.91;72.41;102416.50;5070673;28;20106;-70
2020/12/25 06:59:16;;;;;;;13.60;4.85;;;7.80;99.90;;;7.64;71.56;102378.75;5070600;28;20041;-70
2020/12/25 07:01:46;;;;;;;11.98;4.85;;;7.70;99.90;;;7.77;72.04;102401.09;5071883;28;20044;-70
2020/12/25 07:04:27;;;;;;;9.48;4.68;;;7.70;99.90;;;7.92;71.15;102415.63;5071910;28;20049;-70
2020/12/25 07:06:57;;;;;;;14.23;5.25;;;7.70;99.90;;;7.92;71.09;102420.91;5071918;28;20066;-70
2020/12/25 07:09:36;;;;;;;14.10;5.55;;;7.70;99.90;;;7.90;70.49;102409.44;5075673;28;20044;-70
2020/12/25 07:12:07;;;;;;;11.30;5.13;;;7.70;99.90;;;7.90;71.29;102412.06;5075524;28;20048;-70
2020/12/25 07:14:34;;;;;;;11.45;4.72;;;7.70;99.90;;;7.85;71.09;102411.03;5074409;28;20543;-70
2020/12/25 07:17:02;;;;;;;12.65;4.82;;;7.70;99.90;;;7.84;70.85;102416.25;5075643;28;20040;-70
2020/12/25 07:19:29;;;;;;;11.85;4.07;;;7.60;99.90;;;7.67;71.05;102417.44;5074331;28;20048;-70
2020/12/25 07:21:57;;;;;;;10.13;4.35;;;7.50;99.90;;;7.46;71.33;102390.41;5075197;28;20436;-70
2020/12/25 07:24:25;;;;;;;9.25;4.65;;;7.40;99.90;;;7.59;71.50;102417.19;5075296;28;20090;-70
2020/12/25 07:26:54;;;;;;;10.13;4.50;;;7.30;99.90;;;7.49;71.92;102422.13;5075493;28;20112;-70
2020/12/25 07:29:21;;;;;;;13.15;4.10;;;7.30;99.90;;;7.37;72.34;102413.81;5075440;28;20048;-70
2020/12/25 07:31:51;;;;;;;8.70;4.30;;;7.20;99.90;;;7.16;72.48;102419.28;5075090;28;20509;-70
2020/12/25 07:34:20;;;;;;;15.52;4.68;;;7.00;99.90;;;7.19;73.02;102438.69;5075358;28;20048;-70
2020/12/25 07:36:50;;;;;;;7.60;4.60;;;7.00;99.90;;;6.98;73.21;102426.50;5075222;28;20048;-70
2020/12/25 07:39:18;;;;;;;12.27;4.80;;;6.80;99.90;;;6.89;73.71;102410.44;5075197;28;20129;-70
2020/12/25 07:41:46;;;;;;;7.38;4.70;;;6.80;99.90;;;7.06;73.89;102433.84;5074845;28;20082;-70
2020/12/25 07:44:16;;;;;;;13.73;4.80;;;6.80;99.90;;;7.08;73.87;102433.88;5073843;28;20448;-70
2020/12/25 07:46:44;;;;;;;10.23;4.83;;;6.90;99.90;;;7.03;73.82;102433.72;5075088;28;20077;-70
2020/12/25 07:49:12;;;;;;;9.17;4.43;;;6.80;99.90;;;7.10;73.79;102438.34;5075000;28;20051;-70
2020/12/25 07:51:39;;;;;;;14.57;4.40;;;6.90;99.90;;;7.09;73.74;102433.94;5075020;28;20076;-70
2020/12/25 07:54:07;;;;;;;9.63;4.47;;;6.90;99.90;;;7.12;73.63;102430.53;5073703;28;20075;-70
2020/12/25 07:56:38;;;;;;;15.90;5.40;;;6.90;99.90;;;7.13;73.94;102433.22;5075047;28;20044;-70
2020/12/25 07:59:05;;;;;;;11.67;5.57;;;6.90;99.90;;;7.11;73.87;102437.53;5074900;28;20124;-70
2020/12/25 08:01:34;;;;;;;12.83;5.27;;;6.90;99.90;;;7.02;73.78;102420.53;5074806;28;20048;-70
2020/12/25 08:04:03;;;;;;;14.20;5.17;;;6.90;99.90;;;7.13;73.14;102446.34;5073426;28;20124;-70
2020/12/25 08:06:33;;;;;;;16.73;5.97;;;6.90;99.90;;;7.18;73.36;102447.41;5074539;28;20052;-70
2020/12/25 08:09:03;;;;;;;16.73;5.40;;;7.00;99.90;;;7.26;72.80;102451.19;5074605;28;20127;-70
2020/12/25 08:11:32;;;;;;;14.73;5.70;;;7.00;99.90;;;7.14;72.59;102432.34;5074826;28;20059;-70
2020/12/25 08:14:07;;;;;;;16.10;5.10;;;7.10;99.90;;;7.36;71.68;102444.50;5073228;28;20083;-70
2020/12/25 08:16:38;;;;;;;16.92;5.47;;;7.20;99.90;;;7.42;71.89;102451.72;5074949;28;20389;-70
2020/12/25 08:19:06;;;;;;;16.63;5.18;;;7.30;99.90;;;7.58;70.96;102449.66;5073292;28;20417;-70
2020/12/25 08:21:36;;;;;;;18.77;5.53;;;7.50;99.90;;;7.58;70.47;102428.59;5073120;28;20095;-71
2020/12/25 08:24:05;;;;;;;15.73;5.45;;;7.60;99.90;;;7.81;70.15;102443.41;5074370;28;20056;-65
2020/12/25 08:26:37;;;;;;;13.70;5.03;;;7.70;99.90;;;7.97;69.10;102450.03;5074358;28;20048;-68
2020/12/25 08:29:07;;;;;;;11.98;4.40;;;7.90;99.90;;;8.17;68.12;102457.72;5074355;28;20098;-68
2020/12/25 08:31:36;;;;;;;17.03;5.43;;;8.10;99.90;;;8.27;67.85;102440.47;5073933;28;20055;-69
2020/12/25 08:34:05;;;;;;;14.85;5.13;;;8.30;99.90;;;8.65;67.08;102460.94;5072723;28;20101;-68
2020/12/25 08:36:33;;;;;;;12.50;4.35;;;8.60;99.90;;;8.95;66.02;102464.47;5072519;28;20394;-68
2020/12/25 08:39:07;;;;;;;10.25;4.75;;;8.90;99.90;;;9.32;64.70;102473.34;5074023;28;20056;-69
2020/12/25 08:41:35;;;;;;;10.88;4.50;;;9.20;99.90;;;9.47;64.03;102466.72;5074000;28;20044;-73
2020/12/25 08:44:13;;;;;;;11.93;4.20;;;9.40;99.90;;;9.40;63.73;102445.41;5073925;28;20041;-76
2020/12/25 08:46:42;;;;;;;14.20;5.22;;;9.40;99.90;;;9.53;64.55;102480.09;5073901;28;20044;-71
2020/12/25 08:49:13;;;;;;;10.82;4.22;;;9.40;99.90;;;9.41;65.11;102474.50;5073980;28;20072;-72
2020/12/25 08:51:40;;;;;;;9.88;4.57;;;9.30;99.90;;;9.55;64.03;102464.28;5073709;28;20041;-71
2020/12/25 08:54:08;;;;;;;9.77;4.72;;;9.40;99.90;;;9.66;63.55;102461.06;5073861;28;20055;-71
2020/12/25 08:56:36;;;;;;;14.82;5.10;;;9.50;99.90;;;9.66;63.13;102442.56;5073437;28;20051;-70
2020/12/25 08:59:05;;;;;;;9.30;3.75;;;9.70;99.90;;;9.90;63.65;102440.50;5073472;28;20101;-70
2020/12/25 09:01:36;;;;;;;11.60;4.30;;;9.90;99.90;;;10.05;62.67;102471.69;5073935;28;20234;-70
2020/12/25 09:04:05;;;;;;;12.77;4.55;;;10.00;99.90;;;9.93;63.17;102443.22;5073325;28;20505;-69
2020/12/25 09:06:32;;;;;;;8.75;4.30;;;10.00;99.90;;;9.98;63.74;102460.09;5073619;28;20037;-70
2020/12/25 09:09:00;;;;;;;9.13;3.88;;;9.90;99.90;;;9.92;64.00;102470.53;5073445;28;20040;-69
2020/12/25 09:11:27;;;;;;;12.25;4.88;;;9.80;99.90;;;9.97;64.39;102471.50;5073361;28;20115;-69
2020/12/25 09:13:55;;;;;;;12.27;4.53;;;9.80;99.90;;;9.93;64.49;102447.59;5073087;28;20041;-69
2020/12/25 09:16:22;;;;;;;12.25;4.38;;;10.00;99.90;;;9.85;63.96;102339.06;5073057;28;20064;-70
2020/12/25 09:18:50;;;;;;;17.20;4.90;;;10.50;99.90;;;11.09;62.54;102497.78;5073199;28;20040;-70
2020/12/25 09:21:18;;;;;;;11.55;5.00;;;10.90;99.90;;;11.08;60.84;102477.50;5073319;28;20110;-70
2020/12/25 09:23:46;;;;;;;8.38;4.60;;;11.10;99.90;;;11.13;60.50;102498.78;5073036;28;20490;-71
2020/12/25 09:26:14;;;;;;;17.05;5.20;;;11.10;99.90;;;11.07;60.67;102501.28;5073435;28;20044;-70
2020/12/25 09:28:42;;;;;;;22.08;5.20;;;11.00;99.90;;;11.13;60.83;102515.53;5072850;28;20041;-71
2020/12/25 09:31:13;;;;;;;8.25;4.72;;;11.00;99.90;;;11.31;61.12;102513.25;5072448;28;20040;-75
2020/12/25 09:33:41;;;;;;;12.80;4.60;;;11.10;99.90;;;11.62;59.86;102502.34;5072468;28;20056;-71
2020/12/25 09:36:11;;;;;;;14.77;4.32;;;11.50;99.90;;;12.08;58.60;102493.41;5072516;28;20045;-70
2020/12/25 09:38:43;;;;;;;12.35;5.20;;;11.90;99.90;;;12.55;57.69;102507.38;5071548;28;20146;-72
2020/12/25 09:41:13;;;;;;;14.52;5.45;;;12.30;99.90;;;12.86;55.84;102509.56;5072516;28;20045;-69
2020/12/25 09:43:40;;;;;;;11.05;4.10;;;12.70;99.90;;;12.92;55.63;102501.69;5072682;28;20069;-70
2020/12/25 09:46:08;;;;;;;11.98;4.40;;;12.70;99.90;;;12.67;54.54;102512.84;5072777;28;20124;-69
2020/12/25 09:48:36;;;;;;;9.60;4.65;;;12.60;99.90;;;12.67;54.68;102519.06;5072748;28;20040;-70
2020/12/25 09:51:03;;;;;;;12.85;4.57;;;12.50;99.90;;;12.65;54.57;102519.91;5072495;28;20106;-70
2020/12/25 09:53:31;;;;;;;15.38;5.03;;;12.50;99.90;;;12.39;55.38;102516.88;5072468;28;20056;-70
2020/12/25 09:55:59;;;;;;;15.80;7.20;;;12.40;99.90;;;12.26;54.31;102525.53;5072311;28;20090;-70
2020/12/25 09:58:26;;;;;;;8.30;4.20;;;12.10;99.90;;;12.14;52.96;102529.75;5072213;28;20124;-70
2020/12/25 10:00:53;;;;;;;9.77;4.60;;;12.10;99.90;;;12.05;54.34;102532.25;5072490;28;20052;-73
2020/12/25 10:03:21;;;;;;;9.05;4.28;;;12.00;99.90;;;11.32;55.57;102520.34;5072157;28;20413;-73
2020/12/25 10:05:50;;;;;;;9.15;4.10;;;11.50;99.90;;;10.95;58.06;102525.78;5072189;28;20128;-75
2020/12/25 10:08:17;;;;;;;9.73;4.18;;;10.90;99.90;;;11.10;58.88;102526.06;5072396;28;20056;-72
2020/12/25 10:10:46;;;;;;;9.40;4.03;;;10.90;99.90;;;11.04;58.54;102525.94;5071851;28;20502;-72
2020/12/25 10:13:13;;;;;;;12.45;4.82;;;10.90;99.90;;;10.24;60.09;102496.84;5071934;28;20045;-73
2020/12/25 10:15:41;;;;;;;9.02;4.68;;;10.40;99.90;;;10.39;61.24;102531.59;5071872;28;20094;-73
2020/12/25 10:18:08;;;;;;;6.95;4.40;;;10.20;99.90;;;10.21;61.47;102531.16;5071964;28;20079;-73
2020/12/25 10:20:36;;;;;;;9.32;4.50;;;10.10;99.90;;;10.36;61.94;102532.41;5072269;28;20040;-70
2020/12/25 10:23:04;;;;;;;11.05;4.38;;;10.10;99.90;;;10.49;62.15;102538.88;5071885;28;20052;-69
2020/12/25 10:25:31;;;;;;;9.75;4.22;;;10.20;99.90;;;10.52;62.59;102537.19;5071859;28;20045;-69
2020/12/25 10:27:59;;;;;;;64.80;18.35;;;10.30;99.90;;;10.48;62.30;102526.50;5072226;28;20044;-70